Terminal Aerodrome Forecast
Issued by NWS

Current Version | Previous Version | Text Only | Print | Product List | Glossary On
Versions: 1 2 3 4 5 6 7 8 9 10 11 12 13 14
349
FTUS42 KTAE 022333
TAFDHN
TAF
KDHN 022333Z 0300/0324 21005KT P6SM SCT040 BKN250
     FM030900 00000KT 4SM BR BKN015
      TEMPO 0310/0313 2SM BR SCT004 BKN007
     FM031500 24007KT P6SM BKN030
     FM031800 26010KT 5SM TSRA BKN035CB=

USA.gov is the U.S. government's official web portal to all federal, state and local government web resources and services.